createdAt,value
2019-05-21T01:17:30.788Z,16.69
2019-05-21T01:21:38.932Z,16.56
2019-05-21T01:25:46.944Z,16.50
2019-05-21T01:29:56.805Z,16.12
2019-05-21T01:34:04.997Z,16.25
2019-05-21T01:38:12.838Z,16.42
2019-05-21T01:42:20.818Z,16.14
2019-05-21T01:46:28.804Z,16.04
2019-05-21T01:50:36.276Z,15.81
2019-05-21T01:54:43.894Z,15.67
2019-05-21T01:58:51.489Z,15.66
2019-05-21T02:02:59.671Z,15.77
2019-05-21T02:07:07.660Z,16.04
2019-05-21T02:11:15.155Z,16.08
2019-05-21T02:15:22.854Z,15.76
2019-05-21T02:19:30.856Z,15.59
2019-05-21T02:23:38.424Z,15.87
2019-05-21T02:27:46.493Z,16.00
2019-05-21T02:31:54.076Z,15.76
2019-05-21T02:36:01.966Z,15.67
2019-05-21T02:40:10.539Z,15.93
2019-05-21T02:44:18.072Z,16.12
2019-05-21T02:48:25.942Z,16.05
2019-05-21T02:52:34.144Z,15.87
2019-05-21T02:56:41.718Z,16.12
2019-05-21T03:01:18.306Z,16.18
2019-05-21T03:05:26.386Z,15.95
2019-05-21T03:09:34.080Z,16.13
2019-05-21T03:13:42.169Z,16.33
2019-05-21T03:17:49.979Z,16.35
2019-05-21T03:21:57.456Z,16.27
2019-05-21T03:26:05.540Z,16.11
2019-05-21T03:30:13.597Z,16.18
2019-05-21T03:34:21.770Z,16.30
2019-05-21T03:38:31.591Z,16.60
2019-05-21T03:42:39.288Z,16.64
2019-05-21T03:46:47.192Z,16.45
2019-05-21T03:50:55.286Z,16.42
2019-05-21T03:55:03.587Z,16.35
2019-05-21T03:59:11.581Z,16.56
2019-05-21T04:03:19.361Z,16.85
2019-05-21T04:07:27.481Z,17.10
2019-05-21T04:11:35.697Z,17.24
2019-05-21T04:15:59.985Z,17.48
2019-05-21T04:20:08.346Z,17.48
2019-05-21T04:24:16.335Z,17.69
2019-05-21T04:28:24.317Z,17.97
2019-05-21T04:32:32.308Z,18.32
2019-05-21T04:36:39.716Z,18.56
2019-05-21T04:40:47.665Z,19.10
2019-05-21T04:44:55.271Z,19.46
2019-05-21T04:49:02.874Z,19.72
2019-05-21T04:53:11.131Z,19.72
2019-05-21T04:57:19.098Z,19.64
2019-05-21T05:01:27.217Z,19.79
2019-05-21T05:05:35.118Z,19.62
2019-05-21T05:09:42.958Z,19.51
2019-05-21T05:13:51.399Z,19.60
2019-05-21T05:17:59.440Z,19.77
2019-05-21T05:22:06.938Z,20.17
2019-05-21T05:26:15.032Z,20.68
2019-05-21T05:30:23.212Z,21.07
2019-05-21T05:34:31.432Z,21.31
2019-05-21T05:38:40.105Z,21.50
2019-05-21T05:42:47.894Z,21.63
2019-05-21T05:46:55.901Z,22.10
2019-05-21T05:51:05.447Z,22.37
2019-05-21T05:55:13.468Z,22.25
2019-05-21T05:59:21.471Z,22.35
2019-05-21T06:03:30.820Z,22.02
2019-05-21T06:07:38.578Z,22.28
2019-05-21T06:11:46.569Z,22.85
2019-05-21T06:15:54.169Z,23.04
2019-05-21T06:20:02.040Z,23.24
2019-05-21T06:24:13.339Z,23.60
2019-05-21T06:28:20.300Z,24.00
2019-05-21T06:32:28.271Z,24.03
2019-05-21T06:36:35.844Z,24.29
2019-05-21T06:40:43.817Z,24.60
2019-05-21T06:44:51.889Z,24.57
2019-05-21T06:48:59.623Z,24.76
2019-05-21T06:53:07.744Z,25.22
2019-05-21T06:57:15.789Z,25.21
2019-05-21T07:01:28.925Z,25.44
2019-05-21T07:05:32.955Z,25.61
2019-05-21T07:15:10.820Z,26.04
2019-05-21T07:19:19.268Z,26.43
2019-05-21T07:23:27.732Z,26.76
2019-05-21T07:27:35.979Z,27.19
2019-05-21T07:31:44.754Z,27.62
2019-05-21T07:35:52.741Z,27.62
2019-05-21T07:40:01.260Z,27.76
2019-05-21T07:44:08.757Z,27.70
2019-05-21T07:48:17.222Z,27.85
2019-05-21T07:52:25.691Z,27.85
2019-05-21T07:56:33.149Z,28.24
2019-05-21T08:00:41.631Z,28.63
2019-05-21T08:04:49.455Z,29.00
2019-05-21T08:09:12.447Z,29.64
2019-05-21T08:13:07.282Z,30.37
2019-05-21T08:17:15.072Z,30.34
2019-05-21T08:21:23.947Z,29.84
2019-05-21T08:25:32.199Z,29.73
2019-05-21T08:29:39.917Z,29.86
2019-05-21T08:33:48.516Z,30.22
2019-05-21T08:37:56.322Z,30.40
2019-05-21T08:42:05.058Z,29.55
2019-05-21T08:46:13.781Z,29.92
2019-05-21T08:50:21.898Z,29.32
2019-05-21T08:54:50.070Z,29.27
2019-05-21T08:58:58.399Z,29.45
2019-05-21T09:03:06.202Z,29.68
2019-05-21T09:07:14.736Z,30.38
2019-05-21T09:11:23.480Z,30.35
2019-05-21T09:15:31.408Z,29.77
2019-05-21T09:19:41.245Z,29.88
2019-05-21T09:23:48.967Z,29.64
2019-05-21T09:27:56.957Z,29.28
2019-05-21T09:32:06.045Z,28.87
2019-05-21T09:36:14.022Z,28.10
2019-05-21T09:40:25.037Z,28.23
2019-05-21T09:44:33.849Z,28.88
2019-05-21T09:48:41.323Z,29.30
2019-05-21T09:52:50.074Z,29.71
2019-05-21T09:56:57.797Z,29.13
2019-05-21T10:01:23.367Z,28.73
2019-05-21T10:05:32.252Z,29.64
2019-05-21T10:09:39.961Z,29.78
2019-05-21T10:13:48.680Z,29.52
2019-05-21T10:17:57.382Z,29.79
2019-05-21T10:22:05.470Z,29.49
2019-05-21T10:26:13.860Z,29.44
2019-05-21T10:30:21.881Z,29.58
2019-05-21T10:34:29.791Z,30.08
2019-05-21T10:38:38.529Z,29.74
2019-05-21T10:42:46.317Z,28.85
2019-05-21T10:46:54.542Z,29.17
2019-05-21T10:51:03.468Z,29.10
2019-05-21T10:55:16.079Z,29.59
2019-05-21T10:59:25.656Z,29.60
2019-05-21T11:03:59.789Z,28.45
2019-05-21T11:08:25.415Z,28.34
2019-05-21T11:12:19.193Z,28.54
2019-05-21T11:16:27.117Z,29.07
2019-05-21T11:20:35.848Z,29.22
2019-05-21T11:24:44.473Z,29.12
2019-05-21T11:28:51.828Z,28.93
2019-05-21T11:33:00.283Z,27.94
2019-05-21T11:37:08.193Z,25.71
2019-05-21T11:41:15.887Z,25.11
2019-05-21T11:45:32.119Z,25.11
2019-05-21T11:49:33.875Z,24.29
2019-05-21T11:53:42.716Z,23.17
2019-05-21T11:57:51.327Z,23.17
2019-05-21T12:01:58.960Z,23.02
2019-05-21T12:06:07.684Z,22.26
2019-05-21T12:10:15.785Z,21.88
2019-05-21T12:14:24.422Z,22.23
2019-05-21T12:18:33.066Z,23.78
2019-05-21T12:22:40.866Z,24.99
2019-05-21T12:26:49.290Z,25.54
2019-05-21T12:30:57.013Z,24.72
2019-05-21T12:35:06.840Z,24.72
2019-05-21T12:39:15.098Z,25.21
2019-05-21T12:43:23.455Z,25.62
2019-05-21T12:47:32.026Z,25.62
2019-05-21T12:51:40.264Z,25.43
2019-05-21T12:55:49.184Z,24.81
2019-05-21T12:59:57.410Z,24.81
2019-05-21T13:04:05.836Z,24.10
2019-05-21T13:08:13.410Z,23.93
2019-05-21T13:12:21.676Z,24.08
2019-05-21T13:16:30.316Z,24.19
2019-05-21T13:20:37.874Z,24.75
2019-05-21T13:24:46.315Z,24.88
2019-05-21T13:28:54.396Z,24.94
2019-05-21T13:33:03.313Z,25.27
2019-05-21T13:37:11.228Z,25.27
2019-05-21T13:41:20.046Z,25.92
2019-05-21T13:45:28.102Z,25.62
2019-05-21T13:49:36.271Z,25.48
2019-05-21T13:53:44.925Z,25.48
2019-05-21T13:57:52.747Z,24.24
2019-05-21T14:02:01.475Z,22.88
2019-05-21T14:06:10.384Z,22.02
2019-05-21T14:10:21.305Z,21.52
2019-05-21T14:14:28.962Z,21.39
2019-05-21T14:18:36.652Z,21.02
2019-05-21T14:22:45.528Z,20.66
2019-05-21T14:26:53.230Z,21.26
2019-05-21T14:31:01.777Z,21.97
2019-05-21T14:35:11.421Z,22.73
2019-05-21T14:39:19.964Z,22.95
2019-05-21T14:43:28.785Z,22.58
2019-05-21T14:47:40.946Z,22.24
2019-05-21T14:51:47.640Z,21.97
2019-05-21T14:55:56.097Z,22.10
2019-05-21T15:00:07.535Z,22.12
2019-05-21T15:04:15.944Z,22.16
2019-05-21T15:08:25.052Z,22.14
2019-05-21T15:12:32.967Z,22.00
2019-05-21T15:16:41.720Z,22.28
2019-05-21T15:20:57.595Z,22.11
2019-05-21T15:25:06.287Z,21.81
2019-05-21T15:29:14.940Z,21.81
2019-05-21T15:33:29.401Z,21.70
2019-05-21T15:37:37.775Z,21.67
2019-05-21T15:41:45.986Z,21.93
2019-05-21T15:45:53.876Z,22.40
2019-05-21T15:50:02.310Z,22.70
2019-05-21T15:54:10.031Z,22.53
2019-05-21T15:58:19.273Z,22.11
2019-05-21T16:02:27.985Z,21.74
2019-05-21T16:06:35.677Z,21.55
2019-05-21T16:10:44.216Z,21.26
2019-05-21T16:14:52.957Z,21.24
2019-05-21T16:19:02.395Z,21.06
2019-05-21T16:23:11.145Z,20.92
2019-05-21T16:27:19.041Z,20.59
2019-05-21T16:31:27.680Z,20.16
2019-05-21T16:35:35.971Z,19.83
2019-05-21T16:39:44.575Z,19.74
2019-05-21T16:43:53.014Z,19.75
2019-05-21T16:48:01.432Z,19.91
2019-05-21T16:52:09.643Z,19.69
2019-05-21T16:56:18.042Z,18.21
2019-05-21T17:00:28.014Z,18.21
2019-05-21T17:04:36.727Z,17.81
2019-05-21T17:08:45.393Z,17.81
2019-05-21T17:12:53.199Z,17.67
2019-05-21T17:17:01.212Z,17.33
2019-05-21T17:21:09.090Z,17.14
2019-05-21T17:25:17.945Z,17.15
2019-05-21T17:29:25.994Z,17.07
2019-05-21T17:33:36.670Z,17.12
2019-05-21T17:37:44.799Z,17.17
2019-05-21T17:41:53.253Z,17.05
2019-05-21T17:46:00.695Z,17.20
2019-05-21T17:50:10.258Z,17.14
2019-05-21T17:54:17.762Z,17.06
2019-05-21T17:58:26.259Z,16.94
2019-05-21T18:02:35.021Z,16.88
2019-05-21T18:06:42.746Z,16.95
2019-05-21T18:10:51.031Z,16.94
2019-05-21T18:14:59.163Z,17.03
2019-05-21T18:19:08.583Z,17.03
2019-05-21T18:23:17.295Z,16.94
2019-05-21T18:27:26.196Z,16.74
2019-05-21T18:31:34.299Z,16.57
2019-05-21T18:35:45.359Z,16.46
2019-05-21T18:39:52.441Z,16.39
2019-05-21T18:44:00.541Z,16.43
2019-05-21T18:48:08.907Z,16.39
2019-05-21T18:52:16.492Z,16.19
2019-05-21T18:56:24.490Z,16.17
2019-05-21T19:00:32.202Z,16.24
2019-05-21T19:04:40.446Z,16.33
2019-05-21T19:08:48.438Z,16.31
2019-05-21T19:13:00.156Z,16.43
2019-05-21T19:17:07.072Z,16.30
2019-05-21T19:21:15.070Z,16.17
2019-05-21T19:25:24.185Z,16.00
2019-05-21T19:29:32.629Z,15.78
2019-05-21T19:33:40.222Z,15.82
2019-05-21T19:37:48.411Z,16.06
2019-05-21T19:41:56.722Z,15.99
2019-05-21T19:46:04.939Z,15.97
2019-05-21T19:50:15.253Z,16.05
2019-05-21T19:54:23.997Z,16.01
2019-05-21T19:58:31.588Z,16.11
2019-05-21T20:02:40.724Z,16.16
2019-05-21T20:06:48.830Z,16.09
2019-05-21T20:10:57.857Z,16.07
2019-05-21T20:15:06.989Z,15.87
2019-05-21T20:19:15.494Z,15.91
2019-05-21T20:23:24.829Z,15.90
2019-05-21T20:27:33.899Z,15.94
2019-05-21T20:31:41.682Z,15.77
2019-05-21T20:35:52.086Z,15.72
2019-05-21T20:39:59.856Z,15.80
2019-05-21T20:44:10.480Z,15.71
2019-05-21T20:48:19.383Z,15.65
2019-05-21T20:52:27.329Z,15.53
2019-05-21T20:56:35.500Z,15.54
2019-05-21T21:00:56.886Z,15.64
2019-05-21T21:05:06.550Z,15.70
2019-05-21T21:09:14.536Z,15.69
2019-05-21T21:13:22.421Z,15.74
2019-05-21T21:17:30.954Z,15.53
2019-05-21T21:21:40.048Z,15.57
2019-05-21T21:25:47.619Z,15.52
2019-05-21T21:29:55.960Z,15.40
2019-05-21T21:34:03.840Z,15.29
2019-05-21T21:38:16.389Z,15.26
2019-05-21T21:42:25.269Z,15.47
2019-05-21T21:46:33.143Z,15.56
2019-05-21T21:50:42.554Z,15.56
2019-05-21T21:54:51.525Z,15.25
2019-05-21T21:58:59.008Z,14.89
2019-05-21T22:03:10.943Z,15.08
2019-05-21T22:07:18.753Z,15.13
2019-05-21T22:11:30.009Z,15.20
2019-05-21T22:15:39.274Z,15.26
2019-05-21T22:19:47.437Z,15.34
2019-05-21T22:23:55.587Z,15.11
2019-05-21T22:28:04.314Z,15.06
2019-05-21T22:32:12.049Z,15.10
2019-05-21T22:36:20.797Z,15.07
2019-05-21T22:40:28.718Z,14.90
2019-05-21T22:44:37.720Z,14.68
2019-05-21T22:48:46.652Z,14.41
2019-05-21T22:52:54.228Z,14.40
2019-05-21T22:57:02.228Z,14.32
2019-05-21T23:01:11.942Z,14.26
2019-05-21T23:05:22.846Z,14.21
2019-05-21T23:09:29.322Z,14.23
2019-05-21T23:13:36.867Z,14.23
2019-05-21T23:17:45.072Z,14.48
2019-05-21T23:21:56.743Z,14.49
2019-05-21T23:26:05.214Z,14.49
2019-05-21T23:30:14.470Z,14.39
2019-05-21T23:34:23.013Z,14.45
2019-05-21T23:38:30.924Z,14.53
2019-05-21T23:42:39.440Z,14.54
2019-05-21T23:46:47.248Z,14.70
2019-05-21T23:50:55.410Z,14.56
2019-05-21T23:55:03.878Z,14.38
2019-05-21T23:59:12.097Z,14.37
